createdAt,value
2019-01-05T00:00:47.411Z,-1.31
2019-01-05T00:03:33.416Z,-1.20
2019-01-05T00:06:19.465Z,-1.15
2019-01-05T00:11:53.097Z,-1.12
2019-01-05T00:20:31.779Z,-1.07
2019-01-05T00:26:18.738Z,-1.29
2019-01-05T00:35:13.200Z,-1.35
2019-01-05T00:44:01.560Z,-1.11
2019-01-05T00:52:48.932Z,-0.82
2019-01-05T00:58:28.423Z,-0.53
2019-01-05T01:01:14.629Z,-0.26
2019-01-05T01:04:00.688Z,0.02
2019-01-05T01:06:46.698Z,0.19
2019-01-05T01:09:32.741Z,0.43
2019-01-05T01:15:06.485Z,0.36
2019-01-05T01:17:52.493Z,-0.19
2019-01-05T01:20:38.539Z,-0.05
2019-01-05T01:26:30.407Z,0.36
2019-01-05T01:29:16.516Z,0.49
2019-01-05T01:34:56.093Z,0.50
2019-01-05T01:40:43.268Z,0.23
2019-01-05T01:43:29.374Z,-0.08
2019-01-05T01:46:15.608Z,-0.05
2019-01-05T01:49:01.632Z,-0.39
2019-01-05T01:54:21.660Z,0.18
2019-01-05T02:00:01.330Z,0.08
2019-01-05T02:21:44.464Z,0.36
2019-01-05T02:25:10.000Z,-0.05
2019-01-05T02:28:17.578Z,-0.06
2019-01-05T02:37:38.774Z,0.10
2019-01-05T02:41:04.293Z,-0.16
2019-01-05T02:44:11.893Z,-0.17
2019-01-05T02:47:19.447Z,-0.49
2019-01-05T02:54:01.139Z,-0.44
2019-01-05T03:00:00.936Z,-0.62
2019-01-05T03:06:40.013Z,-0.75
2019-01-05T03:10:05.524Z,-0.86
2019-01-05T03:13:13.208Z,-0.67
2019-01-05T03:22:55.030Z,-0.41
2019-01-05T03:26:02.596Z,-0.57
2019-01-05T03:29:28.152Z,-0.52
2019-01-05T03:32:53.664Z,-0.42
2019-01-05T03:36:19.207Z,-0.24
2019-01-05T03:46:05.413Z,-0.68
2019-01-05T03:49:30.924Z,-0.96
2019-01-05T03:52:56.468Z,-1.15
2019-01-05T03:59:51.865Z,-1.38
2019-01-05T04:06:30.612Z,-1.65
2019-01-05T04:09:38.178Z,-1.59
2019-01-05T04:12:45.760Z,-1.65
2019-01-05T04:19:31.180Z,-1.65
2019-01-05T04:25:52.485Z,-1.73
2019-01-05T04:29:18.000Z,-1.88
2019-01-05T04:32:25.596Z,-1.89
2019-01-05T04:35:51.119Z,-2.00
2019-01-05T04:38:58.708Z,-2.33
2019-01-05T04:42:06.263Z,-2.38
2019-01-05T04:45:13.858Z,-2.37
2019-01-05T05:00:54.611Z,-2.60
2019-01-05T05:04:20.127Z,-2.47
2019-01-05T05:11:05.639Z,-2.38
2019-01-05T05:17:32.144Z,-2.11
2019-01-05T05:20:57.658Z,-2.04
2019-01-05T05:30:22.378Z,-2.21
2019-01-05T05:36:48.665Z,-2.35
2019-01-05T05:40:14.185Z,-2.17
2019-01-05T05:43:39.724Z,-2.19
2019-01-05T05:46:47.290Z,-2.16
2019-01-05T05:49:54.886Z,-2.20
2019-01-05T05:56:32.593Z,-2.41
2019-01-05T05:59:58.098Z,-2.47
2019-01-05T06:03:23.637Z,-2.51
2019-01-05T06:06:49.148Z,-2.56
2019-01-05T06:10:14.685Z,-2.51
2019-01-05T06:16:54.012Z,-2.27
2019-01-05T06:20:01.854Z,-2.19
2019-01-05T06:26:26.080Z,-2.18
2019-01-05T06:29:33.634Z,-1.84
2019-01-05T06:32:59.188Z,-1.81
2019-01-05T06:36:06.745Z,-1.75
2019-01-05T06:39:14.327Z,-1.67
2019-01-05T06:42:39.840Z,-1.57
2019-01-05T06:46:05.376Z,-1.50
2019-01-05T06:53:01.020Z,-1.58
2019-01-05T06:56:26.535Z,-1.38
2019-01-05T06:59:52.094Z,-1.32
2019-01-05T07:06:13.259Z,-0.67
2019-01-05T07:09:38.777Z,-0.03
2019-01-05T07:12:46.371Z,0.48
2019-01-05T07:19:26.035Z,1.39
2019-01-05T07:22:51.548Z,1.28
2019-01-05T07:29:15.621Z,0.99
2019-01-05T07:32:23.185Z,1.18
2019-01-05T07:35:30.787Z,1.23
2019-01-05T07:45:08.135Z,1.96
2019-01-05T07:48:33.646Z,1.22
2019-01-05T07:54:57.478Z,1.70
2019-01-05T07:58:05.041Z,1.03
2019-01-05T08:01:12.638Z,1.07
2019-01-05T08:07:51.457Z,0.41
2019-01-05T08:14:17.275Z,0.45
2019-01-05T08:17:42.808Z,0.89
2019-01-05T08:21:08.347Z,1.28
2019-01-05T08:24:15.911Z,0.88
2019-01-05T08:27:41.445Z,1.28
2019-01-05T08:37:21.421Z,0.36
2019-01-05T08:46:46.004Z,1.86
2019-01-05T08:56:25.850Z,1.64
2019-01-05T08:59:33.407Z,2.61
2019-01-05T09:02:58.956Z,2.05
2019-01-05T09:06:06.519Z,1.14
2019-01-05T09:09:32.074Z,1.47
2019-01-05T09:12:57.633Z,1.06
2019-01-05T09:16:23.171Z,1.64
2019-01-05T09:23:00.724Z,0.82
2019-01-05T09:32:25.769Z,0.85
2019-01-05T09:42:05.211Z,1.09
2019-01-05T09:45:30.735Z,2.22
2019-01-05T09:48:38.333Z,1.18
2019-01-05T09:52:03.844Z,1.85
2019-01-05T09:55:29.389Z,2.81
2019-01-05T09:58:54.897Z,2.68
2019-01-05T10:02:20.446Z,2.30
2019-01-05T10:12:00.377Z,3.43
2019-01-05T10:14:58.954Z,2.80
2019-01-05T10:18:24.602Z,2.95
2019-01-05T10:21:32.174Z,3.26
2019-01-05T10:24:57.813Z,3.35
2019-01-05T10:31:36.970Z,3.65
2019-01-05T10:41:04.886Z,3.74
2019-01-05T10:44:12.448Z,4.25
2019-01-05T10:47:20.042Z,4.04
2019-01-05T11:00:17.497Z,4.37
2019-01-05T11:03:43.014Z,3.65
2019-01-05T11:06:50.625Z,3.67
2019-01-05T11:10:16.135Z,3.46
2019-01-05T11:13:41.699Z,2.56
2019-01-05T11:19:53.190Z,3.05
2019-01-05T11:22:52.251Z,3.57
2019-01-05T11:25:59.980Z,3.31
2019-01-05T11:29:25.545Z,2.86
2019-01-05T11:33:00.314Z,2.99
2019-01-05T11:39:58.435Z,3.51
2019-01-05T11:43:23.943Z,3.39
2019-01-05T11:46:31.553Z,2.91
2019-01-05T11:53:12.121Z,3.51
2019-01-05T11:59:36.265Z,4.69
2019-01-05T12:09:15.992Z,3.28
2019-01-05T12:12:14.619Z,3.77
2019-01-05T12:15:22.228Z,4.38
2019-01-05T12:21:48.110Z,4.47
2019-01-05T12:24:55.685Z,4.21
2019-01-05T12:27:40.068Z,4.16
2019-01-05T12:31:05.581Z,4.25
2019-01-05T12:34:31.120Z,4.11
2019-01-05T12:41:10.729Z,4.76
2019-01-05T12:44:18.302Z,3.90
2019-01-05T12:47:25.897Z,4.30
2019-01-05T12:50:51.413Z,4.20
2019-01-05T12:54:16.952Z,4.39
2019-01-05T13:03:56.437Z,3.62
2019-01-05T13:07:21.952Z,3.48
2019-01-05T13:14:07.328Z,3.73
2019-01-05T13:17:14.913Z,4.08
2019-01-05T13:20:22.556Z,3.47
2019-01-05T13:23:48.062Z,3.97
2019-01-05T13:27:22.262Z,4.10
2019-01-05T13:33:48.430Z,4.01
2019-01-05T13:40:15.160Z,3.41
2019-01-05T13:46:39.446Z,2.54
2019-01-05T13:53:17.055Z,2.96
2019-01-05T13:59:17.135Z,2.27
2019-01-05T14:02:03.202Z,2.09
2019-01-05T14:04:49.289Z,2.07
2019-01-05T14:07:35.292Z,2.35
2019-01-05T14:10:21.443Z,2.00
2019-01-05T14:13:45.678Z,2.23
2019-01-05T14:16:13.778Z,2.51
2019-01-05T14:18:53.812Z,2.56
2019-01-05T14:21:27.467Z,2.44
2019-01-05T14:24:11.913Z,1.88
2019-01-05T14:26:42.733Z,1.70
2019-01-05T14:29:28.698Z,1.46
2019-01-05T14:31:56.869Z,1.31
2019-01-05T14:34:24.933Z,1.30
2019-01-05T14:37:09.656Z,1.24
2019-01-05T14:39:54.608Z,1.16
2019-01-05T14:42:28.253Z,1.12
2019-01-05T14:44:59.204Z,1.11
2019-01-05T14:47:43.535Z,0.98
2019-01-05T14:50:14.105Z,0.99
2019-01-05T14:52:45.011Z,1.01
2019-01-05T14:55:13.132Z,0.90
2019-01-05T15:01:02.666Z,0.94
2019-01-05T15:03:46.102Z,0.32
2019-01-05T15:06:16.828Z,0.58
2019-01-05T15:08:44.893Z,0.50
2019-01-05T15:11:28.067Z,0.29
2019-01-05T15:14:07.958Z,0.28
2019-01-05T15:16:38.811Z,0.24
2019-01-05T15:19:09.652Z,0.07
2019-01-05T15:21:55.744Z,0.00
2019-01-05T15:24:29.643Z,-0.05
2019-01-05T15:27:10.150Z,-0.07
2019-01-05T15:29:54.726Z,-0.07
2019-01-05T15:32:22.831Z,-0.15
2019-01-05T15:34:50.900Z,-0.23
2019-01-05T15:37:21.914Z,-0.35
2019-01-05T15:39:53.026Z,-0.32
2019-01-05T15:42:39.124Z,-0.22
2019-01-05T15:45:18.852Z,-0.36
2019-01-05T15:48:03.527Z,-0.33
2019-01-05T15:53:37.148Z,-0.26
2019-01-05T15:56:05.247Z,-0.46
2019-01-05T15:58:33.313Z,-0.46
2019-01-05T16:01:18.050Z,-0.54
2019-01-05T16:04:02.722Z,-0.79
2019-01-05T16:06:33.717Z,-0.64
2019-01-05T16:09:14.134Z,-0.73
2019-01-05T16:11:42.210Z,-0.81
2019-01-05T16:14:21.978Z,-0.84
2019-01-05T16:16:53.078Z,-0.86
2019-01-05T16:19:30.296Z,-1.00
2019-01-05T16:22:08.625Z,-1.10
2019-01-05T16:24:57.046Z,-1.15
2019-01-05T16:27:26.253Z,-1.02
2019-01-05T16:30:09.394Z,-1.23
2019-01-05T16:32:53.922Z,-1.20
2019-01-05T16:35:39.849Z,-1.16
2019-01-05T16:38:19.638Z,-1.17
2019-01-05T16:40:54.040Z,-1.36
2019-01-05T16:43:22.119Z,-1.24
2019-01-05T16:45:55.754Z,-1.23
2019-01-05T16:48:40.448Z,-1.19
2019-01-05T16:51:24.693Z,-1.20
2019-01-05T16:54:09.127Z,-1.22
2019-01-05T16:56:53.512Z,-1.29
2019-01-05T16:59:21.610Z,-1.49
2019-01-05T17:01:58.692Z,-1.50
2019-01-05T17:04:32.897Z,-1.57
2019-01-05T17:07:18.055Z,-1.47
2019-01-05T17:10:01.469Z,-1.40
2019-01-05T17:12:32.532Z,-1.46
2019-01-05T17:15:06.426Z,-1.58
2019-01-05T17:17:37.549Z,-1.51
2019-01-05T17:20:13.438Z,-1.49
2019-01-05T17:22:58.016Z,-1.37
2019-01-05T17:25:37.946Z,-1.43
2019-01-05T17:28:24.049Z,-1.62
2019-01-05T17:31:08.919Z,-1.64
2019-01-05T17:33:52.345Z,-1.26
2019-01-05T17:36:24.027Z,-1.27
2019-01-05T17:39:09.081Z,-1.25
2019-01-05T17:41:53.512Z,-1.30
2019-01-05T17:44:37.975Z,-1.00
2019-01-05T17:47:06.077Z,-1.14
2019-01-05T17:49:48.933Z,-1.20
2019-01-05T17:52:17.035Z,-1.23
2019-01-05T17:55:01.564Z,-1.10
2019-01-05T17:57:46.503Z,-1.42
2019-01-05T18:00:31.061Z,-1.20
2019-01-05T18:03:15.425Z,-1.28
2019-01-05T18:05:52.093Z,-1.20
2019-01-05T18:08:20.196Z,-1.52
2019-01-05T18:11:00.323Z,-1.57
2019-01-05T18:13:34.417Z,-1.72
2019-01-05T18:16:20.428Z,-1.75
2019-01-05T18:19:03.317Z,-1.69
2019-01-05T18:21:45.336Z,-1.61
2019-01-05T18:24:28.825Z,-1.79
2019-01-05T18:26:56.880Z,-1.92
2019-01-05T18:29:41.614Z,-1.77
2019-01-05T18:32:12.197Z,-1.79
2019-01-05T18:34:49.444Z,-1.92
2019-01-05T18:37:32.575Z,-1.86
2019-01-05T18:40:03.466Z,-2.03
2019-01-05T18:42:34.047Z,-2.26
2019-01-05T18:45:11.133Z,-2.20
2019-01-05T18:47:44.961Z,-2.28
2019-01-05T18:50:29.521Z,-2.32
2019-01-05T18:52:57.553Z,-2.29
2019-01-05T18:55:25.652Z,-2.35
2019-01-05T18:58:10.286Z,-2.52
2019-01-05T19:00:41.096Z,-2.17
2019-01-05T19:03:20.984Z,-2.43
2019-01-05T19:05:54.808Z,-2.17
2019-01-05T19:08:39.286Z,-2.55
2019-01-05T19:11:23.701Z,-2.44
2019-01-05T19:13:54.333Z,-2.33
2019-01-05T19:16:25.163Z,-2.43
2019-01-05T19:19:09.886Z,-2.46
2019-01-05T19:21:40.929Z,-2.63
2019-01-05T19:24:11.909Z,-2.59
2019-01-05T19:26:56.804Z,-2.67
2019-01-05T19:29:24.915Z,-2.52
2019-01-05T19:32:04.791Z,-2.60
2019-01-05T19:34:52.808Z,-2.54
2019-01-05T19:37:37.672Z,-2.53
2019-01-05T19:43:16.731Z,-3.00
2019-01-05T19:45:56.536Z,-2.82
2019-01-05T19:48:30.443Z,-2.90
2019-01-05T19:51:04.647Z,-2.91
2019-01-05T19:53:32.736Z,-2.94
2019-01-05T19:56:06.708Z,-2.88
2019-01-05T19:58:34.784Z,-3.15
2019-01-05T20:01:17.766Z,-3.03
2019-01-05T20:03:45.838Z,-2.95
2019-01-05T20:06:30.764Z,-3.04
2019-01-05T20:09:01.367Z,-3.00
2019-01-05T20:11:35.339Z,-2.88
2019-01-05T20:14:19.895Z,-2.79
2019-01-05T20:16:54.038Z,-2.90
2019-01-05T20:19:36.920Z,-2.83
2019-01-05T20:22:10.768Z,-2.80
2019-01-05T20:24:55.145Z,-2.88
2019-01-05T20:30:19.251Z,-2.79
2019-01-05T20:33:03.987Z,-2.85
2019-01-05T20:35:34.565Z,-2.70
2019-01-05T20:38:02.687Z,-2.91
2019-01-05T20:40:47.103Z,-2.90
2019-01-05T20:43:15.173Z,-2.71
2019-01-05T20:46:01.130Z,-2.81
2019-01-05T20:51:31.492Z,-2.93
2019-01-05T20:54:15.965Z,-2.89
2019-01-05T20:56:59.358Z,-2.84
2019-01-05T20:59:27.410Z,-2.57
2019-01-05T21:02:07.457Z,-2.58
2019-01-05T21:04:39.169Z,-2.92
2019-01-05T21:07:19.353Z,-2.45
2019-01-05T21:09:47.414Z,-2.76
2019-01-05T21:12:30.559Z,-2.42
2019-01-05T21:15:15.757Z,-2.55
2019-01-05T21:17:57.688Z,-2.48
2019-01-05T21:20:43.646Z,-2.75
2019-01-05T21:23:28.092Z,-2.75
2019-01-05T21:26:01.960Z,-2.87
2019-01-05T21:28:30.141Z,-2.91
2019-01-05T21:30:58.582Z,-2.59
2019-01-05T21:33:43.311Z,-2.49
2019-01-05T21:39:34.686Z,-2.88
2019-01-05T21:42:05.673Z,-2.53
2019-01-05T21:44:42.749Z,-2.62
2019-01-05T21:47:16.619Z,-2.99
2019-01-05T21:49:44.715Z,-3.18
2019-01-05T21:52:24.783Z,-2.84
2019-01-05T21:55:09.743Z,-2.69
2019-01-05T21:57:44.832Z,-2.94
2019-01-05T22:00:30.478Z,-2.87
2019-01-05T22:06:15.535Z,-2.87
2019-01-05T22:08:59.976Z,-2.73
2019-01-05T22:11:36.905Z,-2.58
2019-01-05T22:14:20.352Z,-2.79
2019-01-05T22:16:51.246Z,-2.53
2019-01-05T22:19:31.493Z,-2.75
2019-01-05T22:22:14.536Z,-2.70
2019-01-05T22:24:42.596Z,-2.74
2019-01-05T22:27:27.794Z,-2.82
2019-01-05T22:30:02.136Z,-2.75
2019-01-05T22:32:46.508Z,-2.98
2019-01-05T22:35:26.189Z,-2.68
2019-01-05T22:38:10.881Z,-3.10
2019-01-05T22:40:49.009Z,-3.09
2019-01-05T22:43:27.615Z,-2.94
2019-01-05T22:46:07.744Z,-2.79
2019-01-05T22:48:54.177Z,-3.07
2019-01-05T22:51:38.618Z,-2.73
2019-01-05T22:54:23.580Z,-2.94
2019-01-05T22:56:54.156Z,-3.06
2019-01-05T22:59:31.268Z,-3.07
2019-01-05T23:02:16.019Z,-2.97
2019-01-05T23:04:44.112Z,-2.97
2019-01-05T23:07:17.956Z,-2.72
2019-01-05T23:10:02.621Z,-2.81
2019-01-05T23:12:39.329Z,-2.73
2019-01-05T23:15:07.430Z,-2.61
2019-01-05T23:17:52.003Z,-2.87
2019-01-05T23:20:36.441Z,-2.45
2019-01-05T23:23:10.244Z,-2.19
2019-01-05T23:25:38.340Z,-2.20
2019-01-05T23:28:06.396Z,-2.07
2019-01-05T23:30:34.467Z,-2.15
2019-01-05T23:33:08.381Z,-2.12
2019-01-05T23:35:39.457Z,-2.05
2019-01-05T23:38:19.347Z,-2.06
2019-01-05T23:41:04.073Z,-2.03
2019-01-05T23:43:48.536Z,-2.03
2019-01-05T23:46:28.437Z,-1.86
2019-01-05T23:49:05.094Z,-1.99
2019-01-05T23:51:41.983Z,-1.79
2019-01-05T23:54:10.071Z,-2.42
2019-01-05T23:56:53.181Z,-1.91
2019-01-05T23:59:21.277Z,-2.13
